Terminal Aerodrome Forecast
Issued by NWS

Home | Current Version | Previous Version | Graphics & Text | Print | Product List | Glossary On
Versions: 1 2 3 4 5 6 7 8 9 10 11 12 13 14 15 16 17 18 19
000
FTUS43 KMPX 270809 AAA
TAFRWF
TAF AMD
KRWF 270809Z 2708/2806 35003KT P6SM FEW020
      TEMPO 2708/2711 BKN010
     FM271100 VRB03KT P6SM FEW015 SCT200
     FM271800 15010KT P6SM SCT250=

USA.gov is the U.S. government's official web portal to all federal, state and local government web resources and services.